Easton, New York
Current Conditions -  °F | °C
As of 10:51 PM on Saturday 20 Dec 2014 (Local Time) from KALB Reporting Station
Overcast Overcast  
Wind Chill: 23°   Ceiling: 3200
Heat Index: 28°   Visibility: 10mi
Dew Point: 20°   Wind: 5mph
Humidity: 72%   Direction: 10°N
Pressure: 30.32"   Gusts: NA
Location:  42.934°N, 73.6082°W
Report Text: KALB 210351Z 01004KT 10SM OVC032 M02/M07 A3032 RMK AO2 SLP271 T10221067
Loading
Personal Weather Stations






























Interactive Weather Map New forecast layout! Learn more

10-Day Weather Forecast

Advertisements
Track Severe Weather on mobile